Time;durP1;ratioP1;P1;durP2;ratioP2;P2;SDS_P1;SDS_P2;PMS_P1;PMS_P2;Temp;Humidity;BMP_temperature;BMP_pressure;BME280_temperature;BME280_humidity;BME280_pressure;Samples;Min_cycle;Max_cycle;Signal;HPM_P1;HPM_P2
2022/02/09 00:00:45;;;;;;;11.57;4.78;;;;;;;6.99;39.52;95831.16;4951430;29;20199;-63
2022/02/09 00:03:16;;;;;;;11.07;4.93;;;;;;;6.58;41.02;95830.81;4950871;29;20197;-64
2022/02/09 00:06:06;;;;;;;10.02;5.38;;;;;;;6.97;40.58;95830.56;4951440;29;20203;-62
2022/02/09 00:08:32;;;;;;;9.45;4.70;;;;;;;7.48;40.06;95829.63;4951362;29;20259;-64
2022/02/09 00:11:03;;;;;;;11.18;4.60;;;;;;;7.62;38.85;95838.94;4951516;29;20231;-63
2022/02/09 00:19:02;;;;;;;10.93;5.10;;;;;;;6.70;41.10;95844.75;4884831;29;20223;-62
2022/02/09 00:21:48;;;;;;;15.02;4.88;;;;;;;6.78;41.22;95844.53;4904187;29;20222;-63
2022/02/09 01:37:58;;;;;;;14.38;5.10;;;;;;;7.16;41.08;95849.69;4951614;29;20203;-63
2022/02/09 01:44:34;;;;;;;12.85;5.20;;;;;;;7.28;40.49;95847.22;4890309;29;20283;-64
2022/02/09 01:55:29;;;;;;;14.07;5.57;;;;;;;7.76;39.82;95845.63;4950209;29;20203;-63
2022/02/09 01:57:56;;;;;;;12.02;5.05;;;;;;;7.36;39.84;95818.28;4949791;29;20204;-64
2022/02/09 02:00:26;;;;;;;14.95;5.05;;;;;;;7.24;40.32;95840.84;4951580;28;20192;-63
2022/02/09 02:02:59;;;;;;;11.90;5.22;;;;;;;7.57;40.41;95844.00;4953384;29;20214;-63
2022/02/09 02:05:26;;;;;;;16.50;5.40;;;;;;;7.06;40.81;95844.94;4939255;29;20199;-64
2022/02/09 02:07:56;;;;;;;11.55;3.88;;;;;;;7.12;41.09;95857.16;4918268;29;20216;-64
2022/02/09 02:18:08;;;;;;;10.77;5.07;;;;;;;8.09;39.71;95856.56;4953653;29;20336;-62
2022/02/09 03:14:56;;;;;;;27.02;13.00;;;;;;;7.48;42.79;95900.81;4951770;29;20303;-64
2022/02/09 03:17:18;;;;;;;28.77;13.30;;;;;;;6.60;43.79;95917.34;4952384;29;20207;-64
2022/02/09 03:49:29;;;;;;;15.88;7.50;;;;;;;6.42;44.35;95870.31;4951380;29;20227;-61
2022/02/09 03:52:20;;;;;;;19.98;7.47;;;;;;;6.14;44.39;95880.22;4952404;29;20336;-62
2022/02/09 03:55:15;;;;;;;13.73;6.32;;;;;;;5.66;46.18;95879.63;4953683;29;20567;-62
2022/02/09 03:57:45;;;;;;;12.70;6.03;;;;;;;5.99;45.79;95882.22;4952304;29;20212;-62
2022/02/09 04:00:26;;;;;;;12.40;6.47;;;;;;;5.69;46.32;95887.03;4952663;29;20697;-62
2022/02/09 04:02:57;;;;;;;12.93;6.32;;;;;;;6.31;45.28;95870.97;4953655;29;20200;-62
2022/02/09 04:05:25;;;;;;;14.35;7.30;;;;;;;6.59;44.69;95892.28;4952747;29;20620;-62
2022/02/09 04:07:52;;;;;;;15.02;6.30;;;;;;;6.34;45.11;95870.53;4952483;29;20542;-62
2022/02/09 04:10:25;;;;;;;14.05;6.40;;;;;;;6.31;44.98;95897.00;4951454;29;20199;-65
2022/02/09 04:40:08;;;;;;;11.27;5.10;;;;;;;6.96;44.90;95890.72;4950253;29;20250;-64
2022/02/09 04:57:45;;;;;;;8.20;4.70;;;;;;;7.35;44.80;95874.84;4951087;29;20541;-62
2022/02/09 05:27:01;;;;;;;6.18;4.20;;;;;;;7.62;45.32;95907.56;4950106;29;20196;-64
2022/02/09 05:29:28;;;;;;;10.98;4.43;;;;;;;7.65;45.29;95896.69;4948281;29;20216;-62
2022/02/09 05:31:56;;;;;;;7.65;4.57;;;;;;;7.73;45.04;95903.44;4950271;29;20612;-62
2022/02/09 05:34:23;;;;;;;8.25;4.65;;;;;;;8.22;44.67;95903.41;4950032;28;20628;-63
2022/02/09 05:36:49;;;;;;;7.40;4.72;;;;;;;8.34;43.85;95906.16;4953254;29;20262;-63
2022/02/09 05:39:16;;;;;;;12.48;5.82;;;;;;;8.40;43.61;95903.47;4953697;29;20200;-61
2022/02/09 05:41:46;;;;;;;8.93;4.60;;;;;;;8.05;44.50;95918.81;4953669;29;20641;-63
2022/02/09 05:44:13;;;;;;;10.10;5.28;;;;;;;8.57;43.41;95917.56;4953074;29;20208;-63
2022/02/09 05:49:46;;;;;;;45.30;23.60;;;;;;;8.37;45.32;95916.97;4953816;29;20224;-66
2022/02/09 05:55:04;;;;;;;15.40;7.10;;;;;;;8.54;43.93;95923.19;4956551;29;20694;-62
2022/02/09 05:57:44;;;;;;;9.30;5.82;;;;;;;8.16;45.27;95920.72;4954243;29;20211;-63
2022/02/09 06:00:12;;;;;;;9.65;4.82;;;;;;;8.23;44.63;95924.06;4953895;29;20231;-62
2022/02/09 06:02:43;;;;;;;11.38;6.05;;;;;;;8.02;48.09;95929.72;4953878;29;20208;-66
2022/02/09 06:05:15;;;;;;;41.20;23.92;;;;;;;8.51;47.85;95926.25;4953741;29;20216;-66
2022/02/09 06:07:41;;;;;;;9.50;4.90;;;;;;;7.96;45.87;95937.56;4953542;29;20196;-62
2022/02/09 06:10:16;;;;;;;7.68;4.80;;;;;;;7.94;46.54;95942.19;4953312;29;20711;-62
2022/02/09 06:12:54;;;;;;;10.55;5.05;;;;;;;8.08;45.83;95948.94;4953529;29;20615;-60
2022/02/09 06:15:48;;;;;;;10.38;5.00;;;;;;;8.38;45.70;95949.06;4953213;29;20583;-61
2022/02/09 06:20:58;;;;;;;7.82;5.53;;;;;;;8.34;45.40;95959.16;4952603;29;20204;-63
2022/02/09 06:23:25;;;;;;;10.65;5.63;;;;;;;8.35;45.34;95966.00;4954285;29;20212;-63
2022/02/09 06:25:52;;;;;;;9.45;5.28;;;;;;;8.49;45.46;95967.44;4954222;29;20915;-64
2022/02/09 06:28:20;;;;;;;8.50;5.25;;;;;;;8.78;45.06;95963.31;4896184;29;20310;-63
2022/02/09 06:30:47;;;;;;;11.38;5.25;;;;;;;8.65;44.85;95966.09;4941860;29;20208;-62
2022/02/09 06:33:14;;;;;;;7.95;5.28;;;;;;;8.92;44.47;95977.88;4950290;29;20705;-63
2022/02/09 06:35:41;;;;;;;9.07;5.55;;;;;;;8.82;44.46;95961.88;4950860;29;20200;-63
2022/02/09 06:38:08;;;;;;;63.13;26.08;;;;;;;8.71;44.94;95968.63;4951260;29;20226;-64
2022/02/09 06:40:42;;;;;;;75.72;30.23;;;;;;;8.88;44.50;95961.81;4952545;29;20334;-61
2022/02/09 06:43:11;;;;;;;12.50;6.00;;;;;;;9.00;43.91;95965.28;4943074;29;20535;-64
2022/02/09 06:45:41;;;;;;;9.77;6.13;;;;;;;8.85;44.10;95962.25;4953368;29;20219;-62
2022/02/09 06:48:19;;;;;;;10.25;6.10;;;;;;;8.93;44.61;95969.00;4951546;28;20235;-63
2022/02/09 06:50:54;;;;;;;11.60;7.18;;;;;;;8.62;44.79;95975.16;4953210;29;20200;-62
2022/02/09 06:55:56;;;;;;;10.18;6.43;;;;;;;8.39;45.98;95982.84;4953386;29;20731;-62
2022/02/09 06:58:56;;;;;;;13.13;6.30;;;;;;;8.12;46.12;95965.75;4952908;29;20258;-62
2022/02/09 07:01:14;;;;;;;7.75;5.57;;;;;;;8.33;45.50;95978.47;4951844;29;20238;-65
2022/02/09 07:03:41;;;;;;;7.00;5.15;;;;;;;8.66;45.64;95978.94;4952671;29;20286;-63
2022/02/09 07:06:08;;;;;;;11.30;5.60;;;;;;;8.18;46.30;95980.56;4952378;29;20705;-63
2022/02/09 07:08:34;;;;;;;13.73;5.97;;;;;;;8.19;46.37;95987.41;4952404;29;20247;-66
2022/02/09 07:11:03;;;;;;;8.15;5.30;;;;;;;8.15;46.65;95981.00;4953188;29;20215;-64
2022/02/09 07:13:30;;;;;;;9.70;5.35;;;;;;;8.36;45.82;95972.81;4952213;29;20730;-64
2022/02/09 07:16:03;;;;;;;9.93;5.53;;;;;;;8.52;45.82;95972.22;4952354;29;20188;-64
2022/02/09 07:18:30;;;;;;;10.77;5.90;;;;;;;8.54;46.08;95969.44;4953405;29;20212;-64
2022/02/09 07:21:05;;;;;;;11.23;5.50;;;;;;;8.42;45.91;95979.78;4955612;29;20709;-64
2022/02/09 07:23:48;;;;;;;8.27;5.00;;;;;;;8.34;46.64;95982.66;4952465;29;21018;-62
2022/02/09 07:26:40;;;;;;;9.45;4.88;;;;;;;8.74;45.09;95985.72;4952901;29;20543;-63
2022/02/09 07:29:09;;;;;;;20.95;7.07;;;;;;;8.83;45.46;95979.19;4952148;29;20239;-62
2022/02/09 07:31:36;;;;;;;8.65;5.13;;;;;;;8.99;45.16;95984.63;4953076;29;20215;-64
2022/02/09 07:34:04;;;;;;;9.70;4.80;;;;;;;8.97;44.99;95976.19;4951792;29;20210;-62
2022/02/09 07:36:35;;;;;;;12.88;5.10;;;;;;;8.70;45.17;95974.91;4952531;29;20192;-62
2022/02/09 07:39:08;;;;;;;6.88;4.20;;;;;;;9.05;45.17;95981.13;4951933;29;20936;-63
2022/02/09 07:41:37;;;;;;;9.57;5.22;;;;;;;9.39;43.83;95978.88;4952641;29;20195;-64
2022/02/09 07:49:38;;;;;;;12.43;4.97;;;;;;;8.30;45.40;95989.34;4951497;29;20233;-64
2022/02/09 07:52:11;;;;;;;17.75;5.70;;;;;;;8.95;44.27;95996.53;4941117;29;20543;-62
2022/02/09 07:54:38;;;;;;;9.75;4.53;;;;;;;8.94;44.33;95986.28;4934407;29;20215;-62
2022/02/09 07:57:05;;;;;;;10.05;4.13;;;;;;;9.54;43.43;95989.75;4952181;29;20212;-63
2022/02/09 07:59:32;;;;;;;11.25;4.75;;;;;;;9.55;42.88;95988.72;4951505;28;20203;-63
2022/02/09 08:01:59;;;;;;;11.82;5.43;;;;;;;8.55;44.60;95997.94;4952007;29;20693;-64
2022/02/09 08:04:25;;;;;;;9.93;5.30;;;;;;;8.75;45.13;95998.56;4951825;29;20200;-62
2022/02/09 08:06:53;;;;;;;17.63;5.53;;;;;;;8.97;44.22;95997.09;4947640;29;20202;-63
2022/02/09 08:09:34;;;;;;;12.93;4.90;;;;;;;9.38;43.33;95993.00;4951188;29;20219;-62
2022/02/09 08:33:22;;;;;;;7.20;4.35;;;;;;;8.63;44.84;95966.28;4950936;29;20620;-63
2022/02/09 08:35:56;;;;;;;10.63;4.63;;;;;;;8.90;45.29;95970.25;4951694;29;20263;-62
2022/02/09 08:38:28;;;;;;;11.48;4.53;;;;;;;9.16;44.72;95969.91;4950792;29;20754;-62
2022/02/09 08:40:55;;;;;;;7.95;4.30;;;;;;;9.04;44.74;95971.69;4951838;29;20207;-62
2022/02/09 08:43:23;;;;;;;8.90;4.18;;;;;;;9.71;43.51;95977.63;4951282;29;20208;-63
2022/02/09 08:45:51;;;;;;;14.70;4.47;;;;;;;10.15;42.22;95979.81;4951521;29;20278;-62
2022/02/09 08:48:21;;;;;;;14.73;4.82;;;;;;;10.37;41.70;95993.97;4950561;29;20621;-62
2022/02/09 08:50:49;;;;;;;8.32;4.85;;;;;;;10.38;42.19;95974.63;4952876;29;20216;-62
2022/02/09 08:53:18;;;;;;;9.50;4.20;;;;;;;10.56;41.38;95982.34;4951791;29;20200;-62
2022/02/09 08:55:45;;;;;;;10.57;4.43;;;;;;;9.81;43.14;95988.38;4952522;29;20585;-62
2022/02/09 08:58:15;;;;;;;9.13;4.15;;;;;;;10.18;42.91;95976.75;4951066;29;20302;-63
2022/02/09 09:00:42;;;;;;;6.85;4.03;;;;;;;10.39;42.14;95996.34;4950799;29;20200;-62
2022/02/09 09:25:04;;;;;;;4.90;3.53;;;;;;;10.62;41.71;95986.66;4950753;29;20202;-64
2022/02/09 09:58:07;;;;;;;6.53;3.50;;;;;;;11.97;41.19;95961.53;4950520;29;20817;-62
2022/02/09 10:34:20;;;;;;;5.57;3.50;;;;;;;12.20;40.03;95927.22;4953661;29;20448;-62
2022/02/09 10:36:53;;;;;;;5.27;2.27;;;;;;;12.71;39.50;95952.38;4953474;29;20514;-64
2022/02/09 10:39:32;;;;;;;9.93;4.23;;;;;;;12.29;39.84;95957.31;4953620;29;20462;-63
2022/02/09 10:42:30;;;;;;;6.10;3.30;;;;;;;12.27;40.01;95964.63;4954266;29;20446;-63
2022/02/09 10:45:07;;;;;;;5.57;4.13;;;;;;;12.69;39.43;95957.91;4953710;29;20554;-64
2022/02/09 10:47:34;;;;;;;5.33;3.67;;;;;;;12.92;39.59;95957.66;4953734;29;20832;-63
2022/02/09 10:50:31;;;;;;;8.13;3.27;;;;;;;12.55;39.59;95951.41;4954670;29;20534;-63
2022/02/09 10:53:02;;;;;;;7.50;3.90;;;;;;;12.85;39.37;95948.34;4954926;29;20531;-64
2022/02/09 10:55:35;;;;;;;4.20;2.90;;;;;;;11.96;40.55;95946.78;4954126;29;20451;-64
2022/02/09 10:58:07;;;;;;;6.30;3.40;;;;;;;12.58;39.71;95945.66;4876467;29;21493;-62
2022/02/09 11:00:34;;;;;;;4.13;2.90;;;;;;;12.68;39.44;95951.03;4874845;29;20452;-63
2022/02/09 11:03:01;;;;;;;5.17;3.50;;;;;;;11.39;41.94;95951.25;4888314;29;20514;-63
2022/02/09 11:05:28;;;;;;;6.73;3.30;;;;;;;11.84;40.93;95944.22;4953188;29;20514;-62
2022/02/09 11:07:55;;;;;;;8.07;3.40;;;;;;;11.91;41.38;95944.09;4954019;29;20464;-63
2022/02/09 11:10:24;;;;;;;7.17;3.63;;;;;;;12.54;40.13;95947.16;4952924;29;21080;-61
2022/02/09 11:12:53;;;;;;;12.10;3.80;;;;;;;12.35;40.41;95950.28;4953164;29;20957;-63
2022/02/09 11:15:21;;;;;;;7.17;3.50;;;;;;;12.73;39.83;95942.44;4952621;29;20938;-64
2022/02/09 11:17:49;;;;;;;5.57;3.40;;;;;;;12.00;40.70;95951.34;4952791;29;20447;-63
2022/02/09 11:20:26;;;;;;;5.50;3.67;;;;;;;12.30;40.85;95944.97;4952378;29;20458;-62
2022/02/09 11:22:53;;;;;;;6.70;3.83;;;;;;;11.49;42.25;95948.03;4952674;29;20459;-63
2022/02/09 11:25:32;;;;;;;7.63;3.80;;;;;;;12.13;41.62;95948.38;4952251;29;20455;-62
2022/02/09 11:28:18;;;;;;;8.03;5.10;;;;;;;11.72;41.64;95961.06;4953033;29;20555;-62
2022/02/09 11:31:15;;;;;;;5.47;3.70;;;;;;;11.36;42.23;95961.44;4953058;29;20575;-63
2022/02/09 11:33:55;;;;;;;7.30;4.10;;;;;;;11.15;43.19;95966.28;4951469;28;20444;-63
2022/02/09 11:39:04;;;;;;;5.77;2.93;;;;;;;11.02;42.87;95942.94;4919784;29;20983;-62
2022/02/09 11:41:37;;;;;;;5.87;3.20;;;;;;;10.94;43.80;95961.69;4950788;29;20454;-64
2022/02/09 11:44:17;;;;;;;6.40;3.80;;;;;;;10.98;43.46;95956.78;4952531;29;20443;-63
2022/02/09 11:58:18;;;;;;;7.47;3.50;;;;;;;10.70;44.34;95952.25;4952352;29;20443;-61
2022/02/09 12:11:26;;;;;;;5.57;3.83;;;;;;;11.03;44.15;95955.03;4928511;29;20486;-63
2022/02/09 12:14:01;;;;;;;6.40;3.92;;;;;;;10.95;44.08;95954.59;4912978;29;20506;-62
2022/02/09 12:19:32;;;;;;;5.53;3.83;;;;;;;11.46;43.54;95961.63;4926648;29;21033;-61
2022/02/09 12:22:10;;;;;;;9.57;3.70;;;;;;;10.87;44.76;95974.13;4907161;29;20424;-64
2022/02/09 12:24:38;;;;;;;5.65;3.40;;;;;;;10.77;44.51;95968.66;4877542;29;20708;-64
2022/02/09 12:27:12;;;;;;;9.60;3.90;;;;;;;11.30;44.25;95962.38;4875093;29;20949;-62
2022/02/09 12:29:44;;;;;;;6.73;3.83;;;;;;;11.28;43.95;95961.81;4907405;29;20321;-63
2022/02/09 12:32:15;;;;;;;5.70;3.80;;;;;;;11.66;43.57;95978.56;4892518;29;20462;-64
2022/02/09 12:34:55;;;;;;;5.97;4.10;;;;;;;11.44;43.87;95964.47;4889956;29;20911;-63
2022/02/09 12:37:23;;;;;;;6.47;4.33;;;;;;;11.37;43.66;95984.03;4885295;29;20446;-62
2022/02/09 12:40:02;;;;;;;6.00;4.13;;;;;;;11.14;44.33;95983.06;4892459;29;20451;-62
2022/02/09 12:42:38;;;;;;;6.25;3.03;;;;;;;10.98;44.95;95990.88;4919836;29;20530;-63
2022/02/09 12:45:10;;;;;;;7.28;4.10;;;;;;;11.47;43.71;95986.84;4917597;28;20195;-64
2022/02/09 12:47:39;;;;;;;7.15;3.60;;;;;;;11.08;44.69;95983.19;4925801;29;20212;-62
2022/02/09 12:50:19;;;;;;;4.33;3.30;;;;;;;10.56;45.66;95992.84;4950656;29;20239;-62
2022/02/09 12:52:47;;;;;;;3.80;3.30;;;;;;;10.61;46.10;96000.81;4951302;29;20439;-62
2022/02/09 12:55:18;;;;;;;6.38;3.55;;;;;;;11.06;45.31;95988.66;4950688;29;20227;-62
2022/02/09 12:57:49;;;;;;;5.43;3.70;;;;;;;10.76;45.90;95982.81;4951468;29;20259;-66
2022/02/09 13:00:25;;;;;;;6.13;4.30;;;;;;;11.44;44.68;95979.44;4950875;29;20471;-63
2022/02/09 13:02:55;;;;;;;7.13;5.80;;;;;;;10.87;45.42;95984.63;4951422;29;20219;-68
2022/02/09 13:05:22;;;;;;;6.83;4.03;;;;;;;10.88;45.18;95991.44;4951140;29;20207;-63
2022/02/09 13:07:51;;;;;;;4.73;4.20;;;;;;;10.46;46.55;95987.34;4953157;29;20523;-65
2022/02/09 13:10:38;;;;;;;4.35;3.95;;;;;;;10.66;46.23;95990.44;4951704;29;20487;-63
2022/02/09 13:18:33;;;;;;;5.47;4.53;;;;;;;10.78;46.09;95986.00;4948094;29;20196;-61
2022/02/09 13:23:45;;;;;;;4.88;4.30;;;;;;;9.81;47.92;95999.66;4948212;29;20224;-61
2022/02/09 13:52:08;;;;;;;7.35;6.22;;;;;;;10.90;47.05;96004.31;4950131;29;20227;-64
2022/02/09 14:17:46;;;;;;;9.57;8.25;;;;;;;10.75;48.38;96025.75;4954093;29;20180;-65
2022/02/09 14:54:43;;;;;;;15.88;10.40;;;;;;;11.18;50.00;96039.28;4951251;28;20215;-64
2022/02/09 14:57:15;;;;;;;13.17;9.67;;;;;;;10.03;50.89;96033.97;4970954;28;20187;-63
2022/02/09 15:02:16;;;;;;;15.07;12.05;;;;;;;9.87;50.56;96037.22;4954979;28;20208;-64
2022/02/09 15:15:25;;;;;;;14.73;10.80;;;;;;;9.92;50.86;96032.13;4971822;28;20207;-66
2022/02/09 15:23:04;;;;;;;17.20;12.27;;;;;;;9.92;50.65;96039.97;4952454;28;20208;-63
2022/02/09 15:25:34;;;;;;;15.65;12.02;;;;;;;9.74;51.09;96038.22;4959342;28;20345;-68
2022/02/09 15:28:03;;;;;;;14.70;11.18;;;;;;;10.23;50.07;96044.97;4957079;28;20203;-67
2022/02/09 15:30:36;;;;;;;17.25;12.38;;;;;;;10.45;50.30;96038.19;4950236;29;20717;-65
2022/02/09 15:33:04;;;;;;;16.00;12.35;;;;;;;10.40;50.10;96040.66;4951351;28;20211;-64
2022/02/09 15:35:36;;;;;;;16.15;12.32;;;;;;;10.57;49.52;96046.84;4968235;28;20195;-65
2022/02/09 15:38:22;;;;;;;16.42;12.85;;;;;;;10.48;49.11;96042.97;4968877;28;20705;-66
2022/02/09 15:40:58;;;;;;;13.20;11.10;;;;;;;10.40;49.73;96037.25;4967679;28;20254;-64
2022/02/09 16:23:49;;;;;;;8.55;7.57;;;;;;;9.91;50.90;96061.91;4950317;28;20207;-66
2022/02/09 16:45:56;;;;;;;13.38;9.68;;;;;;;10.16;49.40;96080.94;4949830;28;20674;-65
2022/02/09 16:48:24;;;;;;;12.88;10.50;;;;;;;9.97;50.49;96097.69;4953037;28;20750;-62
2022/02/09 16:50:52;;;;;;;16.38;11.45;;;;;;;10.42;49.89;96109.38;4948713;28;20220;-65
2022/02/09 16:53:34;;;;;;;14.88;12.10;;;;;;;10.39;49.43;96112.44;4946577;28;20662;-63
2022/02/09 17:20:26;;;;;;;18.63;13.70;;;;;;;10.32;50.21;96116.19;4950241;28;20663;-64
2022/02/09 17:22:53;;;;;;;16.02;12.88;;;;;;;10.95;49.03;96120.59;4948887;28;20220;-63
2022/02/09 17:25:20;;;;;;;16.98;14.20;;;;;;;10.67;49.06;96115.25;4948452;28;20200;-64
2022/02/09 17:27:48;;;;;;;19.40;15.35;;;;;;;10.63;49.14;96127.19;4948548;28;20204;-64
2022/02/09 17:32:59;;;;;;;17.98;14.90;;;;;;;10.55;49.84;96132.75;4951554;28;20566;-67
2022/02/09 17:35:35;;;;;;;21.92;15.27;;;;;;;10.82;48.70;96133.94;4954563;28;20204;-65
2022/02/09 17:38:31;;;;;;;21.23;15.60;;;;;;;10.28;49.51;96135.97;4953542;28;20298;-67
2022/02/09 17:58:14;;;;;;;18.25;14.10;;;;;;;9.98;50.24;96151.69;4952696;28;20235;-65
2022/02/09 18:00:16;;;;;;;17.70;13.45;;;;;;;10.26;49.95;96146.69;4946015;28;20206;-65
2022/02/09 18:02:54;;;;;;;17.50;13.45;;;;;;;10.63;48.61;96139.50;4951300;28;20203;-65
2022/02/09 18:08:01;;;;;;;15.82;10.93;;;;;;;10.19;49.97;96156.47;4952251;28;21012;-67
2022/02/09 18:29:29;;;;;;;37.90;25.13;;;;;;;10.36;50.24;96139.09;4954231;28;20271;-67
2022/02/09 18:37:45;;;;;;;14.57;11.32;;;;;;;10.21;49.59;96151.81;4948154;28;20986;-65
2022/02/09 18:38:09;;;;;;;15.60;11.20;;;;;;;10.03;49.99;96149.19;4953704;28;20208;-66
2022/02/09 18:41:31;;;;;;;13.07;10.38;;;;;;;10.32;49.71;96164.16;4951258;28;20211;-65
2022/02/09 18:43:25;;;;;;;15.98;11.75;;;;;;;10.14;49.10;96157.09;4948909;28;20196;-65
2022/02/09 18:46:01;;;;;;;14.10;11.68;;;;;;;10.33;49.37;96155.25;4950915;28;20212;-64
2022/02/09 18:48:49;;;;;;;18.23;11.73;;;;;;;10.20;49.33;96171.13;4951004;28;20210;-65
2022/02/09 18:57:02;;;;;;;16.52;10.98;;;;;;;10.40;48.74;96152.56;4964984;28;20210;-63
2022/02/09 19:04:47;;;;;;;16.30;10.98;;;;;;;10.27;49.68;96168.44;4952411;29;20203;-66
2022/02/09 19:07:36;;;;;;;16.70;11.18;;;;;;;10.66;48.92;96176.53;4952621;29;20191;-65
2022/02/09 19:29:25;;;;;;;15.40;11.02;;;;;;;10.51;48.96;96191.88;4952610;29;20227;-64
2022/02/09 19:48:27;;;;;;;13.20;10.00;;;;;;;10.96;46.39;96205.34;4950215;28;20240;-66
2022/02/09 19:53:38;;;;;;;13.13;9.65;;;;;;;10.44;47.23;96213.97;4947922;28;20638;-65
2022/02/09 19:56:11;;;;;;;14.63;11.13;;;;;;;10.87;46.45;96215.38;4949222;28;20212;-65
2022/02/09 20:01:15;;;;;;;14.25;11.60;;;;;;;11.06;45.75;96210.81;4949223;28;20192;-63
2022/02/09 20:03:41;;;;;;;18.23;13.38;;;;;;;11.25;45.71;96201.84;4948745;28;20206;-65
2022/02/09 20:06:09;;;;;;;19.42;13.80;;;;;;;11.00;45.79;96216.97;4949626;28;20204;-64
2022/02/09 20:08:57;;;;;;;17.83;13.82;;;;;;;11.39;45.31;96218.94;4947757;28;20279;-66
2022/02/09 20:11:43;;;;;;;18.77;14.35;;;;;;;11.60;44.40;96220.22;4948449;28;20326;-64
2022/02/09 20:14:12;;;;;;;20.80;14.25;;;;;;;11.46;45.07;96229.34;4948036;28;20220;-65
2022/02/09 20:16:40;;;;;;;17.27;13.75;;;;;;;11.50;44.59;96218.16;4948180;28;20659;-66
2022/02/09 20:19:07;;;;;;;17.52;13.48;;;;;;;11.16;44.64;96230.25;4949292;28;20200;-66
2022/02/09 20:21:34;;;;;;;15.40;11.85;;;;;;;10.75;45.87;96222.38;4949843;28;20196;-65
2022/02/09 20:24:02;;;;;;;17.10;12.95;;;;;;;11.03;45.43;96222.56;4946396;28;20211;-66
2022/02/09 20:26:30;;;;;;;17.35;11.80;;;;;;;11.05;45.39;96228.41;4949277;28;20222;-64
2022/02/09 20:34:51;;;;;;;15.18;9.75;;;;;;;11.12;45.68;96239.59;4956880;28;20282;-63
2022/02/09 20:37:19;;;;;;;12.98;9.50;;;;;;;10.78;45.72;96235.06;4961167;28;20231;-62
2022/02/09 20:40:11;;;;;;;10.88;9.35;;;;;;;10.32;46.53;96237.50;4959647;28;20227;-65
2022/02/09 20:42:34;;;;;;;13.50;9.52;;;;;;;10.65;46.26;96237.88;4957362;28;20548;-65
2022/02/09 20:45:10;;;;;;;13.63;9.57;;;;;;;10.46;46.93;96244.16;4956611;28;20687;-64
2022/02/09 20:47:42;;;;;;;12.25;8.77;;;;;;;10.56;46.33;96244.44;4956930;28;20203;-65
2022/02/09 20:50:09;;;;;;;12.00;9.18;;;;;;;10.78;46.18;96237.69;4953165;28;20230;-65
2022/02/09 20:52:36;;;;;;;11.45;9.05;;;;;;;10.42;46.73;96252.72;4951194;28;20235;-65
2022/02/09 20:55:04;;;;;;;11.35;9.20;;;;;;;10.68;46.26;96242.66;4952141;28;20226;-64
2022/02/09 20:57:33;;;;;;;12.57;9.50;;;;;;;10.48;46.79;96241.31;4950905;28;20663;-66
2022/02/09 21:00:07;;;;;;;10.50;9.13;;;;;;;10.84;45.79;96246.47;4951437;28;20394;-64
2022/02/09 21:05:28;;;;;;;14.02;10.63;;;;;;;11.03;45.77;96217.34;4949151;28;20207;-65
2022/02/09 21:08:15;;;;;;;12.07;9.30;;;;;;;10.29;47.15;96237.94;4950076;28;20204;-63
2022/02/09 21:10:59;;;;;;;12.90;9.75;;;;;;;10.29;46.70;96232.72;4951352;28;20209;-65
2022/02/09 21:32:26;;;;;;;13.40;10.52;;;;;;;11.24;45.39;96222.03;4951443;29;20929;-63
2022/02/09 21:59:44;;;;;;;10.98;8.88;;;;;;;11.37;44.42;96249.09;4949246;29;20215;-62
2022/02/09 22:07:32;;;;;;;11.18;9.43;;;;;;;11.45;43.39;96240.88;4950534;28;20208;-63
2022/02/09 22:22:00;;;;;;;13.40;10.27;;;;;;;11.46;44.15;96239.84;4957331;28;20204;-65
2022/02/09 22:25:59;;;;;;;11.98;9.57;;;;;;;11.31;44.49;96237.69;4952653;29;20210;-63
2022/02/09 22:27:21;;;;;;;13.18;10.32;;;;;;;11.05;44.67;96238.91;4952535;28;20633;-65
2022/02/09 22:48:37;;;;;;;62.72;35.67;;;;;;;10.24;45.82;96232.56;4953126;29;20635;-63
2022/02/09 22:56:42;;;;;;;70.90;40.22;;;;;;;9.85;45.72;96225.13;4953167;29;20196;-63
2022/02/09 22:59:17;;;;;;;71.55;39.83;;;;;;;9.93;45.52;96230.88;4952290;29;20255;-63
2022/02/09 23:01:52;;;;;;;73.30;40.20;;;;;;;9.96;45.66;96214.72;4952873;29;20192;-64
2022/02/09 23:07:07;;;;;;;69.10;39.17;;;;;;;9.52;46.56;96214.19;4951921;29;20261;-63
2022/02/09 23:12:41;;;;;;;68.70;37.40;;;;;;;9.23;45.97;96167.81;4919937;29;20232;-65
2022/02/09 23:15:17;;;;;;;69.70;39.05;;;;;;;9.70;46.08;96217.66;4953888;28;20660;-62
2022/02/09 23:21:18;;;;;;;58.97;37.10;;;;;;;9.91;45.09;96219.81;4951086;28;20261;-63
